createdAt,value
2023-05-07T00:02:17.592Z,2.70
2023-05-07T00:04:45.336Z,2.60
2023-05-07T00:07:12.158Z,2.60
2023-05-07T00:09:38.971Z,2.80
2023-05-07T00:12:06.017Z,2.70
2023-05-07T00:14:32.778Z,2.50
2023-05-07T00:16:59.694Z,2.60
2023-05-07T00:19:26.532Z,2.90
2023-05-07T00:21:55.017Z,2.50
2023-05-07T00:24:21.732Z,2.60
2023-05-07T00:26:48.685Z,2.50
2023-05-07T00:29:15.458Z,2.70
2023-05-07T00:31:42.242Z,2.60
2023-05-07T00:34:09.163Z,2.70
2023-05-07T00:36:37.889Z,2.90
2023-05-07T00:39:04.847Z,2.60
2023-05-07T00:41:32.129Z,2.60
2023-05-07T00:43:59.028Z,2.60
2023-05-07T00:46:26.435Z,3.30
2023-05-07T00:48:53.308Z,2.70
2023-05-07T00:51:20.113Z,2.70
2023-05-07T00:53:47.122Z,2.50
2023-05-07T00:56:13.978Z,2.20
2023-05-07T00:58:41.931Z,2.90
2023-05-07T01:01:09.279Z,2.80
2023-05-07T01:03:36.356Z,3.20
2023-05-07T01:06:04.245Z,3.70
2023-05-07T01:08:31.592Z,6.20
2023-05-07T01:10:58.462Z,6.40
2023-05-07T01:13:25.490Z,5.60
2023-05-07T01:15:53.303Z,4.90
2023-05-07T01:18:20.399Z,4.30
2023-05-07T01:20:47.463Z,3.90
2023-05-07T01:23:14.426Z,3.30
2023-05-07T01:25:41.311Z,3.60
2023-05-07T01:28:08.199Z,3.10
2023-05-07T01:30:36.405Z,3.00
2023-05-07T01:33:12.279Z,3.30
2023-05-07T01:35:41.667Z,2.90
2023-05-07T01:38:08.766Z,3.20
2023-05-07T01:40:35.969Z,3.00
2023-05-07T01:43:03.546Z,3.00
2023-05-07T01:45:31.455Z,2.80
2023-05-07T01:47:59.445Z,2.90
2023-05-07T01:50:26.868Z,3.10
2023-05-07T01:52:53.833Z,2.80
2023-05-07T01:55:20.775Z,2.90
2023-05-07T01:57:47.785Z,3.00
2023-05-07T02:00:15.364Z,3.10
2023-05-07T02:02:45.375Z,3.00
2023-05-07T02:05:19.900Z,3.20
2023-05-07T02:07:50.592Z,3.20
2023-05-07T02:10:17.897Z,3.30
2023-05-07T02:12:44.741Z,3.00
2023-05-07T02:15:11.920Z,3.20
2023-05-07T02:18:03.377Z,2.90
2023-05-07T02:20:30.462Z,3.00
2023-05-07T02:22:57.366Z,3.00
2023-05-07T02:25:25.651Z,2.90
2023-05-07T02:27:52.837Z,3.30
2023-05-07T02:30:22.284Z,2.80
2023-05-07T02:32:51.124Z,3.00
2023-05-07T02:35:18.262Z,3.10
2023-05-07T02:37:45.150Z,2.90
2023-05-07T02:40:13.102Z,3.00
2023-05-07T02:42:40.296Z,3.00
2023-05-07T02:45:08.146Z,3.10
2023-05-07T02:47:35.562Z,3.00
2023-05-07T02:50:02.916Z,3.20
2023-05-07T02:52:30.189Z,3.10
2023-05-07T02:54:57.148Z,3.10
2023-05-07T02:57:23.946Z,3.10
2023-05-07T02:59:50.817Z,3.50
2023-05-07T03:02:18.445Z,3.50
2023-05-07T03:04:45.420Z,3.50
2023-05-07T03:07:12.223Z,3.40
2023-05-07T03:09:38.984Z,3.90
2023-05-07T03:12:06.386Z,3.70
2023-05-07T03:14:33.181Z,3.90
2023-05-07T03:16:59.932Z,4.20
2023-05-07T03:19:26.932Z,4.60
2023-05-07T03:21:53.725Z,4.70
2023-05-07T03:24:20.955Z,5.60
2023-05-07T03:26:47.947Z,5.70
2023-05-07T03:29:15.264Z,6.20
2023-05-07T03:31:42.053Z,6.60
2023-05-07T03:34:09.067Z,7.10
2023-05-07T03:36:36.371Z,7.30
2023-05-07T03:39:04.497Z,7.90
2023-05-07T03:41:36.721Z,8.70
2023-05-07T03:44:03.576Z,8.90
2023-05-07T03:46:30.536Z,10.40
2023-05-07T03:48:57.394Z,12.00
2023-05-07T03:51:25.080Z,12.20
2023-05-07T03:53:54.118Z,12.50
2023-05-07T03:56:22.076Z,12.60
2023-05-07T04:00:05.722Z,13.80
2023-05-07T04:02:36.395Z,14.50
2023-05-07T04:05:04.262Z,14.50
2023-05-07T04:07:31.183Z,14.50
2023-05-07T04:09:58.070Z,14.50
2023-05-07T04:12:25.415Z,15.20
2023-05-07T04:14:52.407Z,16.20
2023-05-07T04:17:19.532Z,16.20
2023-05-07T04:19:46.843Z,16.50
2023-05-07T04:22:14.876Z,16.50
2023-05-07T04:24:41.777Z,15.60
2023-05-07T04:27:08.830Z,15.90
2023-05-07T04:29:36.165Z,15.00
2023-05-07T04:32:03.257Z,14.70
2023-05-07T04:34:30.063Z,14.90
2023-05-07T04:36:59.783Z,13.80
2023-05-07T04:39:26.782Z,14.10
2023-05-07T04:41:53.729Z,13.80
2023-05-07T04:44:20.864Z,13.50
2023-05-07T04:46:49.431Z,11.80
2023-05-07T04:49:16.722Z,10.50
2023-05-07T04:51:45.076Z,9.50
2023-05-07T04:54:12.668Z,9.50
2023-05-07T04:56:39.496Z,10.30
2023-05-07T04:59:06.769Z,11.30
2023-05-07T05:01:34.343Z,10.00
2023-05-07T05:04:01.761Z,10.50
2023-05-07T05:06:29.884Z,9.10
2023-05-07T05:08:56.990Z,9.80
2023-05-07T05:11:25.300Z,9.20
2023-05-07T05:13:52.376Z,8.40
2023-05-07T05:16:20.656Z,9.30
2023-05-07T05:18:48.321Z,8.40
2023-05-07T05:21:16.661Z,8.70
2023-05-07T05:23:44.151Z,7.80
2023-05-07T05:26:11.725Z,8.70
2023-05-07T05:28:38.695Z,8.10
2023-05-07T05:31:06.334Z,8.80
2023-05-07T05:33:35.992Z,8.10
2023-05-07T05:36:05.183Z,7.70
2023-05-07T05:38:34.004Z,7.30
2023-05-07T05:41:01.094Z,7.60
2023-05-07T05:43:29.331Z,7.50
2023-05-07T05:45:58.178Z,5.80
2023-05-07T05:48:25.058Z,6.00
2023-05-07T05:50:52.327Z,6.80
2023-05-07T05:53:19.433Z,6.80
2023-05-07T05:55:46.515Z,7.20
2023-05-07T05:58:13.396Z,7.20
2023-05-07T06:00:43.052Z,7.60
2023-05-07T06:03:11.635Z,7.50
2023-05-07T06:05:39.490Z,7.90
2023-05-07T06:08:06.391Z,7.80
2023-05-07T06:10:33.755Z,7.90
2023-05-07T06:13:01.086Z,8.20
2023-05-07T06:15:28.721Z,7.80
2023-05-07T06:17:58.476Z,7.50
2023-05-07T06:20:25.677Z,8.20
2023-05-07T06:22:52.505Z,8.50
2023-05-07T06:25:19.333Z,8.20
2023-05-07T06:27:46.276Z,8.40
2023-05-07T06:30:13.567Z,8.30
2023-05-07T06:32:41.971Z,8.10
2023-05-07T06:35:09.764Z,8.10
2023-05-07T06:37:39.402Z,8.80
2023-05-07T06:40:09.441Z,8.70
2023-05-07T06:42:38.903Z,8.80
2023-05-07T06:45:31.920Z,8.00
2023-05-07T06:47:59.327Z,8.50
2023-05-07T06:50:26.793Z,9.40
2023-05-07T06:52:56.600Z,8.40
2023-05-07T06:55:23.423Z,9.30
2023-05-07T06:57:51.097Z,9.30
2023-05-07T07:00:18.813Z,8.40
2023-05-07T07:02:52.381Z,8.00
2023-05-07T07:05:21.291Z,8.40
2023-05-07T07:07:53.806Z,7.70
2023-05-07T07:10:21.611Z,7.10
2023-05-07T07:12:50.195Z,7.20
2023-05-07T07:15:17.452Z,6.90
2023-05-07T07:17:45.166Z,7.10
2023-05-07T07:20:12.441Z,7.80
2023-05-07T07:22:39.987Z,7.40
2023-05-07T07:25:07.838Z,7.90
2023-05-07T07:27:34.749Z,7.70
2023-05-07T07:30:01.529Z,8.00
2023-05-07T07:32:29.613Z,8.20
2023-05-07T07:34:56.469Z,8.00
2023-05-07T07:37:23.233Z,7.90
2023-05-07T07:39:50.106Z,7.70
2023-05-07T07:42:17.350Z,7.20
2023-05-07T07:44:44.528Z,7.30
2023-05-07T07:47:12.606Z,7.10
2023-05-07T07:49:39.898Z,7.00
2023-05-07T07:52:07.119Z,7.60
2023-05-07T07:54:35.634Z,8.20
2023-05-07T07:57:02.895Z,7.40
2023-05-07T07:59:31.533Z,7.70
2023-05-07T08:01:59.515Z,7.70
2023-05-07T08:04:27.792Z,7.10
2023-05-07T08:06:55.509Z,7.50
2023-05-07T08:09:22.430Z,7.20
2023-05-07T08:11:49.648Z,6.50
2023-05-07T08:14:16.952Z,6.60
2023-05-07T08:16:46.245Z,6.20
2023-05-07T08:19:13.650Z,5.30
2023-05-07T08:21:41.067Z,5.50
2023-05-07T08:24:09.109Z,5.20
2023-05-07T08:26:36.933Z,5.00
2023-05-07T08:29:04.318Z,5.10
2023-05-07T08:31:31.191Z,5.10
2023-05-07T08:33:58.696Z,5.90
2023-05-07T08:36:26.712Z,5.60
2023-05-07T08:38:54.277Z,5.60
2023-05-07T08:41:21.939Z,5.40
2023-05-07T08:43:50.517Z,5.30
2023-05-07T08:46:19.256Z,5.60
2023-05-07T08:48:49.293Z,5.90
2023-05-07T08:51:17.817Z,5.60
2023-05-07T08:53:44.886Z,5.90
2023-05-07T08:56:14.533Z,6.60
2023-05-07T08:58:41.363Z,6.70
2023-05-07T09:01:09.209Z,5.50
2023-05-07T09:03:36.358Z,5.20
2023-05-07T09:06:03.558Z,5.60
2023-05-07T09:08:30.903Z,4.90
2023-05-07T09:10:59.369Z,5.20
2023-05-07T09:13:26.470Z,5.50
2023-05-07T09:15:53.575Z,4.80
2023-05-07T09:18:20.571Z,4.90
2023-05-07T09:20:48.255Z,5.20
2023-05-07T09:23:16.342Z,5.00
2023-05-07T09:25:43.747Z,5.20
2023-05-07T09:28:15.769Z,5.40
2023-05-07T09:30:42.717Z,4.90
2023-05-07T09:33:11.096Z,4.90
2023-05-07T09:35:39.666Z,4.30
2023-05-07T09:38:09.487Z,3.70
2023-05-07T09:40:36.969Z,3.80
2023-05-07T09:43:12.626Z,5.70
2023-05-07T09:45:42.535Z,3.70
2023-05-07T09:48:10.176Z,3.60
2023-05-07T09:50:44.216Z,3.80
2023-05-07T09:53:11.198Z,3.70
2023-05-07T09:55:39.250Z,3.80
2023-05-07T09:58:07.068Z,4.00
2023-05-07T10:00:34.492Z,3.70
2023-05-07T10:03:06.357Z,3.90
2023-05-07T10:05:40.521Z,4.10
2023-05-07T10:08:07.647Z,4.20
2023-05-07T10:10:35.751Z,4.30
2023-05-07T10:13:03.155Z,4.60
2023-05-07T10:15:33.122Z,4.60
2023-05-07T10:18:00.560Z,4.70
2023-05-07T10:20:27.939Z,4.60
2023-05-07T10:22:55.337Z,4.70
2023-05-07T10:28:06.006Z,4.50
2023-05-07T10:30:39.957Z,4.80
2023-05-07T10:33:08.298Z,4.90
2023-05-07T10:35:43.357Z,4.60
2023-05-07T10:38:10.363Z,5.00
2023-05-07T10:40:38.757Z,5.00
2023-05-07T10:43:10.294Z,5.40
2023-05-07T10:46:10.927Z,5.60
2023-05-07T10:49:09.507Z,5.60
2023-05-07T10:52:19.499Z,5.20
2023-05-07T10:55:16.376Z,5.20
2023-05-07T10:57:44.451Z,5.60
2023-05-07T11:00:20.253Z,5.30
2023-05-07T11:03:01.914Z,5.10
2023-05-07T11:05:36.553Z,5.20
2023-05-07T11:08:18.770Z,4.90
2023-05-07T11:11:00.473Z,4.90
2023-05-07T11:13:50.493Z,4.80
2023-05-07T11:16:38.893Z,4.30
2023-05-07T11:19:55.085Z,4.60
2023-05-07T11:22:41.076Z,5.10
2023-05-07T11:25:20.384Z,6.10
2023-05-07T11:27:51.258Z,7.10
2023-05-07T11:30:19.576Z,6.50
2023-05-07T11:32:48.813Z,5.30
2023-05-07T11:35:17.131Z,6.60
2023-05-07T11:37:44.700Z,6.60
2023-05-07T11:40:15.196Z,6.70
2023-05-07T11:45:12.273Z,7.40
2023-05-07T11:47:39.793Z,6.80
2023-05-07T11:50:09.286Z,5.90
2023-05-07T11:52:36.252Z,5.60
2023-05-07T11:55:04.706Z,5.30
2023-05-07T11:57:31.487Z,5.90
2023-05-07T12:00:00.833Z,5.60
2023-05-07T12:02:27.975Z,5.80
2023-05-07T12:04:55.320Z,5.60
2023-05-07T12:07:22.286Z,6.00
2023-05-07T12:09:49.198Z,6.70
2023-05-07T12:12:18.304Z,6.40
2023-05-07T12:14:46.618Z,6.30
2023-05-07T12:17:14.668Z,5.90
2023-05-07T12:19:43.056Z,6.40
2023-05-07T12:22:09.876Z,6.80
2023-05-07T12:24:47.202Z,6.60
2023-05-07T12:27:15.072Z,7.20
2023-05-07T12:29:47.333Z,6.80
2023-05-07T12:32:17.224Z,6.40
2023-05-07T12:34:45.900Z,6.40
2023-05-07T12:37:16.476Z,6.20
2023-05-07T12:42:17.402Z,6.40
2023-05-07T12:44:46.429Z,6.10
2023-05-07T12:47:13.856Z,6.00
2023-05-07T12:49:41.370Z,5.70
2023-05-07T12:52:08.158Z,5.40
2023-05-07T12:54:38.451Z,5.90
2023-05-07T12:57:09.390Z,5.80
2023-05-07T12:59:41.181Z,5.60
2023-05-07T13:02:08.590Z,6.10
2023-05-07T13:04:36.684Z,5.70
2023-05-07T13:07:03.601Z,5.60
2023-05-07T13:09:30.816Z,6.00
2023-05-07T13:11:57.556Z,6.50
2023-05-07T13:14:24.334Z,5.90
2023-05-07T13:16:51.284Z,9.70
2023-05-07T13:19:18.595Z,8.30
2023-05-07T13:21:45.778Z,7.90
2023-05-07T13:24:12.528Z,7.40
2023-05-07T13:26:39.591Z,7.20
2023-05-07T13:29:06.512Z,7.60
2023-05-07T13:31:34.939Z,6.80
2023-05-07T13:34:02.098Z,7.00
2023-05-07T13:36:29.594Z,6.90
2023-05-07T13:38:56.361Z,6.60
2023-05-07T13:41:23.296Z,6.50
2023-05-07T13:43:50.535Z,7.40
2023-05-07T13:46:18.046Z,7.10
2023-05-07T13:48:44.838Z,6.60
2023-05-07T13:51:11.805Z,6.30
2023-05-07T13:53:38.875Z,6.90
2023-05-07T13:56:06.079Z,7.40
2023-05-07T13:58:32.872Z,7.00
2023-05-07T14:00:59.627Z,7.80
2023-05-07T14:03:26.536Z,7.20
2023-05-07T14:05:53.531Z,7.20
2023-05-07T14:08:21.081Z,6.90
2023-05-07T14:10:47.865Z,7.00
2023-05-07T14:13:14.703Z,6.30
2023-05-07T14:15:41.558Z,6.90
2023-05-07T14:18:08.392Z,6.60
2023-05-07T14:20:37.774Z,7.30
2023-05-07T14:23:04.543Z,6.30
2023-05-07T14:25:31.295Z,6.50
2023-05-07T14:27:58.244Z,6.70
2023-05-07T14:30:25.611Z,7.20
2023-05-07T14:32:52.589Z,6.50
2023-05-07T14:35:19.477Z,7.40
2023-05-07T14:37:46.301Z,7.20
2023-05-07T14:40:13.656Z,7.30
2023-05-07T14:42:40.945Z,7.20
2023-05-07T14:45:08.955Z,6.50
2023-05-07T14:47:36.175Z,6.90
2023-05-07T14:50:03.449Z,6.90
2023-05-07T14:52:30.279Z,6.70
2023-05-07T14:54:57.108Z,7.30
2023-05-07T14:57:24.035Z,7.60
2023-05-07T14:59:51.121Z,8.70
2023-05-07T15:02:21.188Z,7.10
2023-05-07T15:04:48.513Z,8.10
2023-05-07T15:07:18.905Z,8.00
2023-05-07T15:09:45.769Z,8.80
2023-05-07T15:12:12.751Z,8.50
2023-05-07T15:14:40.118Z,8.60
2023-05-07T15:17:06.976Z,8.80
2023-05-07T15:19:34.019Z,7.70
2023-05-07T15:22:03.323Z,7.80
2023-05-07T15:24:33.116Z,8.40
2023-05-07T15:27:00.245Z,8.20
2023-05-07T15:29:27.277Z,8.60
2023-05-07T15:31:54.248Z,8.30
2023-05-07T15:34:22.034Z,8.40
2023-05-07T15:36:48.972Z,8.60
2023-05-07T15:39:17.262Z,9.00
2023-05-07T15:41:44.062Z,8.70
2023-05-07T15:44:11.047Z,10.40
2023-05-07T15:46:37.994Z,9.50
2023-05-07T15:49:05.688Z,9.50
2023-05-07T15:51:35.763Z,9.00
2023-05-07T15:54:02.648Z,9.70
2023-05-07T15:56:29.372Z,9.70
2023-05-07T15:58:56.735Z,10.20
2023-05-07T16:01:25.943Z,10.60
2023-05-07T16:03:53.173Z,10.80
2023-05-07T16:06:20.100Z,8.30
2023-05-07T16:08:47.312Z,7.50
2023-05-07T16:11:14.194Z,6.50
2023-05-07T16:13:41.038Z,6.70
2023-05-07T16:16:54.664Z,7.00
2023-05-07T16:19:24.152Z,6.60
2023-05-07T16:21:51.009Z,6.60
2023-05-07T16:24:17.792Z,7.40
2023-05-07T16:26:44.783Z,7.30
2023-05-07T16:29:11.895Z,7.40
2023-05-07T16:31:38.763Z,7.50
2023-05-07T16:34:05.921Z,6.20
2023-05-07T16:36:32.746Z,6.80
2023-05-07T16:38:59.757Z,6.50
2023-05-07T16:41:26.982Z,7.40
2023-05-07T16:43:53.964Z,7.20
2023-05-07T16:46:21.103Z,7.90
2023-05-07T16:48:48.055Z,7.20
2023-05-07T16:51:15.450Z,7.10
2023-05-07T16:53:42.230Z,7.40
2023-05-07T16:56:09.262Z,7.50
2023-05-07T16:58:36.142Z,7.20
2023-05-07T17:01:02.930Z,6.40
2023-05-07T17:03:32.235Z,6.10
2023-05-07T17:05:59.278Z,5.90
2023-05-07T17:08:26.156Z,5.50
2023-05-07T17:10:52.984Z,5.70
2023-05-07T17:13:19.879Z,4.80
2023-05-07T17:15:47.768Z,4.40
2023-05-07T17:18:14.774Z,4.00
2023-05-07T17:20:41.773Z,3.40
2023-05-07T17:23:08.575Z,3.30
2023-05-07T17:25:36.651Z,2.90
2023-05-07T17:28:03.731Z,2.40
2023-05-07T17:30:30.805Z,2.20
2023-05-07T17:33:06.160Z,2.20
2023-05-07T17:35:40.149Z,2.20
2023-05-07T17:38:06.965Z,2.00
2023-05-07T17:40:34.659Z,2.50
2023-05-07T17:43:01.995Z,2.50
2023-05-07T17:45:28.882Z,2.10
2023-05-07T17:47:55.822Z,2.10
2023-05-07T17:50:22.841Z,2.50
2023-05-07T17:52:49.785Z,2.60
2023-05-07T17:55:16.784Z,2.30
2023-05-07T17:57:43.621Z,2.90
2023-05-07T18:00:14.520Z,2.90
2023-05-07T18:02:41.884Z,2.80
2023-05-07T18:05:09.548Z,3.20
2023-05-07T18:07:36.612Z,3.10
2023-05-07T18:10:03.515Z,3.10
2023-05-07T18:12:30.383Z,3.50
2023-05-07T18:14:57.209Z,3.40
2023-05-07T18:17:24.506Z,3.50
2023-05-07T18:19:54.042Z,3.20
2023-05-07T18:22:21.690Z,3.60
2023-05-07T18:24:48.550Z,3.60
2023-05-07T18:27:15.708Z,3.60
2023-05-07T18:29:42.826Z,3.50
2023-05-07T18:32:09.902Z,3.60
2023-05-07T18:34:37.407Z,3.60
2023-05-07T18:37:04.158Z,4.00
2023-05-07T18:39:31.851Z,3.60
2023-05-07T18:41:58.930Z,3.80
2023-05-07T18:44:25.840Z,3.20
2023-05-07T18:46:53.302Z,3.40
2023-05-07T18:49:20.146Z,3.10
2023-05-07T18:51:47.364Z,2.90
2023-05-07T18:54:14.132Z,3.00
2023-05-07T18:56:41.651Z,3.20
2023-05-07T18:59:08.482Z,3.40
2023-05-07T19:01:35.375Z,3.40
2023-05-07T19:04:02.366Z,3.30
2023-05-07T19:06:31.080Z,3.60
2023-05-07T19:09:00.262Z,3.40
2023-05-07T19:11:27.072Z,3.10
2023-05-07T19:13:53.918Z,3.70
2023-05-07T19:16:20.805Z,3.40
2023-05-07T19:18:47.865Z,3.90
2023-05-07T19:21:14.679Z,3.40
2023-05-07T19:23:44.516Z,3.30
2023-05-07T19:26:11.543Z,3.10
2023-05-07T19:28:39.198Z,3.70
2023-05-07T19:31:07.502Z,3.60
2023-05-07T19:33:34.300Z,3.50
2023-05-07T19:36:01.469Z,3.50
2023-05-07T19:38:29.494Z,3.30
2023-05-07T19:40:57.588Z,3.60
2023-05-07T19:43:24.457Z,3.90
2023-05-07T19:45:53.134Z,3.60
2023-05-07T19:48:19.918Z,3.30
2023-05-07T19:50:48.226Z,3.50
2023-05-07T19:53:15.019Z,3.50
2023-05-07T19:55:41.930Z,3.60
2023-05-07T19:58:08.878Z,3.90
2023-05-07T20:00:36.014Z,3.70
2023-05-07T20:03:04.722Z,3.40
2023-05-07T20:05:31.884Z,4.10
2023-05-07T20:08:00.476Z,4.00
2023-05-07T20:10:27.570Z,3.90
2023-05-07T20:12:54.409Z,4.30
2023-05-07T20:15:21.199Z,3.90
2023-05-07T20:17:48.091Z,3.90
2023-05-07T20:20:15.100Z,4.20
2023-05-07T20:22:42.230Z,4.50
2023-05-07T20:25:10.539Z,3.90
2023-05-07T20:27:39.783Z,4.50
2023-05-07T20:30:10.429Z,4.20
2023-05-07T20:32:37.725Z,4.20
2023-05-07T20:35:06.746Z,4.10
2023-05-07T20:37:35.154Z,3.90
2023-05-07T20:40:03.156Z,4.00
2023-05-07T20:42:29.955Z,3.90
2023-05-07T20:44:56.777Z,3.80
2023-05-07T20:47:23.865Z,3.30
2023-05-07T20:49:51.882Z,3.40
2023-05-07T20:52:19.365Z,2.90
2023-05-07T20:54:47.710Z,3.10
2023-05-07T20:57:14.674Z,3.10
2023-05-07T20:59:41.600Z,2.70
2023-05-07T21:02:08.569Z,2.90
2023-05-07T21:04:35.480Z,2.70
2023-05-07T21:07:02.454Z,3.00
2023-05-07T21:09:29.771Z,2.70
2023-05-07T21:11:56.580Z,2.60
2023-05-07T21:14:23.682Z,2.60
2023-05-07T21:16:50.561Z,2.30
2023-05-07T21:19:17.871Z,2.60
2023-05-07T21:21:44.676Z,2.80
2023-05-07T21:24:11.636Z,2.70
2023-05-07T21:26:38.496Z,2.60
2023-05-07T21:29:05.424Z,2.40
2023-05-07T21:31:32.224Z,2.60
2023-05-07T21:33:59.083Z,2.40
2023-05-07T21:36:25.854Z,2.90
2023-05-07T21:38:52.587Z,2.90
2023-05-07T21:41:20.460Z,3.00
2023-05-07T21:43:47.218Z,2.80
2023-05-07T21:46:14.292Z,3.50
2023-05-07T21:48:41.158Z,3.30
2023-05-07T21:51:08.487Z,3.40
2023-05-07T21:53:35.282Z,3.40
2023-05-07T21:56:05.241Z,3.30
2023-05-07T21:58:32.352Z,3.60
2023-05-07T22:01:00.423Z,3.60
2023-05-07T22:03:27.236Z,3.70
2023-05-07T22:05:54.161Z,3.30
2023-05-07T22:08:21.116Z,3.20
2023-05-07T22:10:48.058Z,3.20
2023-05-07T22:13:15.004Z,3.00
2023-05-07T22:15:53.142Z,3.00
2023-05-07T22:18:23.554Z,2.90
2023-05-07T22:20:53.527Z,3.10
2023-05-07T22:23:20.357Z,3.00
2023-05-07T22:25:47.219Z,2.90
2023-05-07T22:28:13.958Z,3.00
2023-05-07T22:30:40.934Z,3.00
2023-05-07T22:33:07.865Z,3.10
2023-05-07T22:35:34.983Z,3.50
2023-05-07T22:38:01.791Z,3.30
2023-05-07T22:40:28.494Z,3.30
2023-05-07T22:42:55.344Z,3.30
2023-05-07T22:45:22.486Z,3.20
2023-05-07T22:47:49.463Z,3.70
2023-05-07T22:50:16.338Z,3.60
2023-05-07T22:52:43.170Z,3.90
2023-05-07T22:55:10.087Z,3.50
2023-05-07T22:57:36.992Z,3.70
2023-05-07T23:00:05.136Z,3.30
2023-05-07T23:02:32.753Z,3.70
2023-05-07T23:05:01.065Z,3.80
2023-05-07T23:07:28.127Z,3.90
2023-05-07T23:09:55.305Z,3.60
2023-05-07T23:12:22.129Z,3.90
2023-05-07T23:14:48.895Z,4.10
2023-05-07T23:17:15.634Z,4.00
2023-05-07T23:19:43.054Z,4.30
2023-05-07T23:22:10.538Z,4.00
2023-05-07T23:24:37.475Z,4.20
2023-05-07T23:27:05.984Z,4.20
2023-05-07T23:29:32.955Z,3.90
2023-05-07T23:32:00.384Z,4.90
2023-05-07T23:34:27.368Z,4.40
2023-05-07T23:36:54.360Z,4.40
2023-05-07T23:39:21.277Z,4.80
2023-05-07T23:41:48.144Z,4.60
2023-05-07T23:44:16.662Z,4.50
2023-05-07T23:46:44.705Z,4.20
2023-05-07T23:49:11.741Z,4.80
2023-05-07T23:51:38.675Z,4.70
2023-05-07T23:54:06.712Z,5.00
2023-05-07T23:56:33.839Z,4.10
2023-05-07T23:59:01.012Z,5.30
